Weather History for Chipley, FL

Change the Weather History Date:

Tuesday, June 18, 2013

  Actual Average (KMAI) Record (KMAI)
Temperature  
Mean Temperature 87 °F 81 °F  
Max Temperature 96 °F 91 °F 102 °F (1998)
Min Temperature 78 °F 70 °F 66 °F (2007)
Degree Days  
Heating Degree Days 0    
Month to date heating degree days  
Since 1 June heating degree days  
Since 1 July heating degree days  
Cooling Degree Days 22    
Month to date cooling degree days  
Year to date cooling degree days  
Since 1 June cooling degree days  
Growing Degree Days 37 (Base 50)    
Moisture  
Dew Point 69 °F    
Average Humidity 56    
Maximum Humidity 78    
Minimum Humidity 36    
Precipitation  
Precipitation 0.00 in 0.20 in 0.49 in (2000)
Month to date precipitation 3.25  
Year to date precipitation 25.47  
Sea Level Pressure  
Sea Level Pressure 29.98 in    
Wind  
Wind Speed 6 mph (SW)    
Max Wind Speed 12 mph    
Max Gust Speed 20 mph    
Visibility 10 miles    
Events      
T = Trace of Precipitation, MM = Missing Value Source: NWS Daily Summary

Daily Weather History Graph

Daily Weather History Graph

Search for Another Location

Airport:

Trip Planner

Search our weather history database for the weather conditions in past years. The results will help you decide how hot, cold, wet, or windy it might be!

Date:

Astronomy

Jun. 18, 2013 Rise Set
Actual Time 5:39 AM CDT 7:47 PM CDT
Civil Twilight 5:11 AM CDT 8:15 PM CDT
Nautical Twilight 4:37 AM CDT 8:49 PM CDT
Astronomical Twilight 4:01 AM CDT 9:25 PM CDT
Moon 2:46 PM CDT (6/18) 1:30 AM CDT (6/18)
Length of Visible Light 15h 04m
Length of Day
14h 08m
Waxing Gibbous, 71% of the Moon is Illuminated
Jun 18
Waxing Gibbous
Jun 23
Full
Jun 29
Last Quarter
Jul 8
New
Jul 15
First Quarter

Hourly Weather History & Observations

Time (CDT) Temp. Heat Index Dew Point Humidity Pressure Visibility Wind Dir Wind Speed Gust Speed Precip Events Conditions
12:15 AM 84.2 °F 89.6 °F 71.6 °F 66% 29.98 in 10.0 mi SSW 4.6 mph - N/A   Clear
12:35 AM 82.4 °F 87.2 °F 71.6 °F 70% 29.98 in 10.0 mi SW 4.6 mph - N/A   Clear
12:55 AM 82.4 °F 87.2 °F 71.6 °F 70% 29.98 in 10.0 mi SSW 5.8 mph - N/A   Mostly Cloudy
1:15 AM 82.4 °F 87.2 °F 71.6 °F 70% 29.97 in 10.0 mi SW 4.6 mph - N/A   Mostly Cloudy
1:35 AM 82.4 °F 86.3 °F 69.8 °F 66% 29.97 in 10.0 mi SSW 5.8 mph - N/A   Clear
1:55 AM 82.4 °F 86.3 °F 69.8 °F 66% 29.97 in 10.0 mi SSW 5.8 mph - N/A   Partly Cloudy
2:15 AM 82.4 °F 86.3 °F 69.8 °F 66% 29.98 in 10.0 mi SSW 5.8 mph - N/A   Clear
2:35 AM 82.4 °F 86.3 °F 69.8 °F 66% 29.97 in 10.0 mi SW 5.8 mph - N/A   Clear
2:55 AM 80.6 °F 83.9 °F 69.8 °F 70% 29.97 in 10.0 mi SSW 5.8 mph - N/A   Clear
3:15 AM 82.4 °F 86.3 °F 69.8 °F 66% 29.97 in 10.0 mi SW 3.5 mph - N/A   Scattered Clouds
3:35 AM 80.6 °F 84.6 °F 71.6 °F 74% 29.97 in 10.0 mi SW 4.6 mph - N/A   Mostly Cloudy
3:55 AM 80.6 °F 84.6 °F 71.6 °F 74% 29.97 in 10.0 mi SW 4.6 mph - N/A   Mostly Cloudy
4:15 AM 80.6 °F 83.9 °F 69.8 °F 70% 29.98 in 10.0 mi SW 3.5 mph - N/A   Partly Cloudy
4:35 AM 80.6 °F 83.9 °F 69.8 °F 70% 29.98 in 10.0 mi SW 4.6 mph - N/A   Clear
4:55 AM 80.6 °F 83.9 °F 69.8 °F 70% 29.98 in 10.0 mi SSW 4.6 mph - N/A   Clear
5:15 AM 80.6 °F 83.9 °F 69.8 °F 70% 29.98 in 10.0 mi SSW 3.5 mph - N/A   Clear
5:35 AM 78.8 °F - 69.8 °F 74% 29.98 in 10.0 mi SSW 3.5 mph - N/A   Partly Cloudy
5:55 AM 78.8 °F - 71.6 °F 78% 29.99 in 10.0 mi SSW 4.6 mph - N/A   Clear
6:15 AM 80.6 °F 84.6 °F 71.6 °F 74% 29.99 in 10.0 mi SSW 3.5 mph - N/A   Clear
6:35 AM 80.6 °F 84.6 °F 71.6 °F 74% 29.99 in 10.0 mi SSW 4.6 mph - N/A   Clear
6:55 AM 80.6 °F 84.6 °F 71.6 °F 74% 30.00 in 10.0 mi SSW 4.6 mph - N/A   Clear
7:15 AM 80.6 °F 83.9 °F 69.8 °F 70% 30.00 in 10.0 mi SSW 4.6 mph - N/A   Clear
7:35 AM 82.4 °F 86.3 °F 69.8 °F 66% 30.01 in 10.0 mi SW 8.1 mph - N/A   Clear
7:55 AM 84.2 °F 89.6 °F 71.6 °F 66% 30.02 in 10.0 mi SW 6.9 mph - N/A   Clear
8:15 AM 84.2 °F 88.4 °F 69.8 °F 62% 30.03 in 10.0 mi WSW 8.1 mph - N/A   Clear
8:35 AM 86.0 °F 90.4 °F 69.8 °F 58% 30.03 in 10.0 mi SW 4.6 mph - N/A   Clear
8:55 AM 86.0 °F 90.4 °F 69.8 °F 58% 30.03 in 10.0 mi WSW 6.9 mph - N/A   Partly Cloudy
9:15 AM 89.6 °F 96.2 °F 71.6 °F 55% 30.03 in 5.0 mi WSW 3.5 mph 18.4 mph N/A   Partly Cloudy
9:35 AM 87.8 °F 92.6 °F 69.8 °F 55% 30.03 in 10.0 mi WSW 8.1 mph - N/A   Partly Cloudy
9:55 AM 87.8 °F 92.6 °F 69.8 °F 55% 30.03 in 10.0 mi WSW 6.9 mph - N/A   Clear
10:15 AM 87.8 °F 92.6 °F 69.8 °F 55% 30.03 in 10.0 mi WSW 5.8 mph - N/A   Partly Cloudy
10:35 AM 89.6 °F 93.4 °F 68.0 °F 49% 30.03 in 10.0 mi West 5.8 mph - N/A   Partly Cloudy
10:55 AM 89.6 °F 93.4 °F 68.0 °F 49% 30.02 in 10.0 mi SW 6.9 mph - N/A   Partly Cloudy
11:15 AM 89.6 °F 94.7 °F 69.8 °F 52% 30.02 in 10.0 mi SW 6.9 mph - N/A   Partly Cloudy
11:35 AM 91.4 °F 94.0 °F 66.2 °F 43% 30.01 in 10.0 mi SSW 8.1 mph - N/A   Clear
11:55 AM 91.4 °F 94.0 °F 66.2 °F 43% 30.01 in 10.0 mi SW 9.2 mph - N/A   Partly Cloudy
12:15 PM 91.4 °F 94.0 °F 66.2 °F 43% 30.01 in 10.0 mi SW 8.1 mph - N/A   Partly Cloudy
12:35 PM 91.4 °F 94.0 °F 66.2 °F 43% 30.01 in 10.0 mi SW 8.1 mph - N/A   Partly Cloudy
12:55 PM 91.4 °F 94.0 °F 66.2 °F 43% 30.00 in 10.0 mi SSW 10.4 mph - N/A   Clear
1:15 PM 93.2 °F 96.2 °F 66.2 °F 41% 29.99 in 10.0 mi SSW 10.4 mph - N/A   Clear
1:55 PM 93.2 °F 98.8 °F 69.8 °F 46% 29.98 in 10.0 mi SW 10.4 mph 19.6 mph N/A   Partly Cloudy
2:15 PM 93.2 °F 97.7 °F 68.0 °F 44% 29.98 in 10.0 mi SW 10.4 mph - N/A   Partly Cloudy
2:35 PM 95.0 °F 98.5 °F 66.2 °F 39% 29.96 in 10.0 mi South 10.4 mph - N/A   Clear
2:55 PM 95.0 °F 99.5 °F 68.0 °F 41% 29.95 in 10.0 mi SW 10.4 mph 17.3 mph N/A   Clear
3:15 PM 95.0 °F 98.5 °F 66.2 °F 39% 29.94 in 10.0 mi SSW 9.2 mph - N/A   Partly Cloudy
3:35 PM 96.8 °F 100.7 °F 66.2 °F 37% 29.94 in 10.0 mi SW 8.1 mph - N/A   Partly Cloudy
3:55 PM 96.8 °F 101.8 °F 68.0 °F 39% 29.93 in 10.0 mi SW 9.2 mph - N/A   Scattered Clouds
4:15 PM 96.8 °F 100.7 °F 66.2 °F 37% 29.92 in 10.0 mi SSW 9.2 mph - N/A   Partly Cloudy
4:35 PM 96.8 °F 100.7 °F 66.2 °F 37% 29.92 in 10.0 mi South 10.4 mph - N/A   Partly Cloudy
4:55 PM 96.8 °F 100.7 °F 66.2 °F 37% 29.92 in 4.0 mi SW 6.9 mph - N/A   Partly Cloudy
5:15 PM 95.0 °F 97.0 °F 64.4 °F 36% 29.91 in 10.0 mi SSW 6.9 mph - N/A   Clear
5:35 PM 93.2 °F 94.1 °F 62.6 °F 36% 29.91 in 10.0 mi SSW 8.1 mph 18.4 mph N/A   Clear
5:55 PM 93.2 °F 94.1 °F 62.6 °F 36% 29.91 in 10.0 mi SSW 9.2 mph 16.1 mph N/A   Clear
6:15 PM 93.2 °F 94.9 °F 64.4 °F 38% 29.91 in 10.0 mi WSW 5.8 mph - N/A   Clear
6:35 PM 93.2 °F 96.2 °F 66.2 °F 41% 29.92 in 10.0 mi South 11.5 mph 16.1 mph N/A   Partly Cloudy
6:55 PM 91.4 °F 95.4 °F 68.0 °F 46% 29.92 in 10.0 mi SSW 10.4 mph 17.3 mph N/A   Partly Cloudy
7:15 PM 91.4 °F 94.0 °F 66.2 °F 43% 29.93 in 10.0 mi SSW 10.4 mph 16.1 mph N/A   Clear
7:35 PM 89.6 °F 92.2 °F 66.2 °F 46% 29.94 in 10.0 mi SW 10.4 mph 17.3 mph N/A   Clear
7:55 PM 87.8 °F 90.4 °F 66.2 °F 49% 29.94 in 10.0 mi SW 6.9 mph - N/A   Clear
8:15 PM 87.8 °F 89.4 °F 64.4 °F 46% 29.95 in 10.0 mi SW 9.2 mph 16.1 mph N/A   Clear
8:35 PM 87.8 °F 89.4 °F 64.4 °F 46% 29.95 in 10.0 mi SW 8.1 mph - N/A   Clear
8:55 PM 86.0 °F 88.2 °F 66.2 °F 51% 29.95 in 10.0 mi SW 9.2 mph - N/A   Clear
9:15 PM 84.2 °F 87.3 °F 68.0 °F 58% 29.96 in 10.0 mi SSW 8.1 mph - N/A   Clear
9:35 PM 84.2 °F 88.4 °F 69.8 °F 62% 29.97 in 10.0 mi SW 4.6 mph - N/A   Clear
9:55 PM 82.4 °F 85.4 °F 68.0 °F 62% 29.99 in 10.0 mi SW 5.8 mph - N/A   Clear
10:15 PM 84.2 °F 87.3 °F 68.0 °F 58% 30.00 in 10.0 mi SW 6.9 mph - N/A   Clear
10:35 PM 82.4 °F 86.3 °F 69.8 °F 66% 30.01 in 10.0 mi SSW 5.8 mph - N/A   Clear
10:55 PM 82.4 °F 86.3 °F 69.8 °F 66% 30.00 in 10.0 mi SW 6.9 mph - N/A   Clear
11:15 PM 82.4 °F 86.3 °F 69.8 °F 66% 30.00 in 10.0 mi SW 5.8 mph - N/A   Clear
11:35 PM 82.4 °F 86.3 °F 69.8 °F 66% 29.99 in 10.0 mi SSW 5.8 mph - N/A   Clear
11:55 PM 82.4 °F 86.3 °F 69.8 °F 66% 29.99 in 10.0 mi SW 5.8 mph - N/A   Clear